Time;durP1;ratioP1;P1;durP2;ratioP2;P2;SDS_P1;SDS_P2;PMS_P1;PMS_P2;Temp;Humidity;BMP_temperature;BMP_pressure;BME280_temperature;BME280_humidity;BME280_pressure;Samples;Min_cycle;Max_cycle;Signal;HPM_P1;HPM_P2
2023/10/12 00:01:23;;;;;;;15.87;3.07;;;14.60;99.90;;;;;;5074354;28;20102;-67
2023/10/12 00:03:55;;;;;;;15.30;2.50;;;14.60;99.90;;;;;;5074671;28;20044;-67
2023/10/12 00:06:21;;;;;;;11.90;3.20;;;14.60;99.90;;;;;;5074273;28;20139;-68
2023/10/12 00:08:48;;;;;;;15.80;3.20;;;14.60;99.90;;;;;;5074452;28;20048;-68
2023/10/12 00:11:19;;;;;;;13.13;2.57;;;14.50;99.90;;;;;;5074293;28;20123;-67
2023/10/12 00:13:47;;;;;;;13.70;2.73;;;14.60;99.90;;;;;;5074397;28;20550;-67
2023/10/12 00:16:19;;;;;;;10.70;2.53;;;14.60;99.90;;;;;;5073112;28;20055;-68
2023/10/12 00:18:48;;;;;;;12.87;2.80;;;14.60;99.90;;;;;;5074083;28;20441;-67
2023/10/12 00:21:17;;;;;;;18.03;3.10;;;14.60;99.90;;;;;;5074142;28;20048;-67
2023/10/12 00:23:47;;;;;;;11.10;2.50;;;14.50;99.90;;;;;;5072913;28;20048;-68
2023/10/12 00:26:13;;;;;;;9.97;2.43;;;14.50;99.90;;;;;;5074041;28;20401;-67
2023/10/12 00:28:39;;;;;;;12.43;2.57;;;14.50;99.90;;;;;;5072759;28;20374;-67
2023/10/12 00:31:07;;;;;;;8.97;2.43;;;14.50;99.90;;;;;;5073973;28;20044;-67
2023/10/12 00:33:33;;;;;;;15.97;3.10;;;14.60;99.90;;;;;;5073675;28;20055;-67
2023/10/12 00:36:11;;;;;;;13.40;2.37;;;14.60;99.90;;;;;;5073920;28;20048;-67
2023/10/12 00:38:38;;;;;;;13.83;2.87;;;14.50;99.90;;;;;;5073680;28;20044;-67
2023/10/12 00:41:04;;;;;;;16.20;3.13;;;14.50;99.90;;;;;;5073329;28;20105;-67
2023/10/12 00:43:41;;;;;;;13.83;2.53;;;14.50;99.90;;;;;;5073516;28;20052;-67
2023/10/12 00:49:13;;;;;;;12.40;3.23;;;14.50;99.90;;;;;;5073512;28;20386;-67
2023/10/12 00:51:37;;;;;;;13.67;2.73;;;14.50;99.90;;;;;;5073215;28;20044;-68
2023/10/12 00:54:04;;;;;;;8.97;2.30;;;14.50;99.90;;;;;;5073587;28;20051;-68
2023/10/12 00:56:30;;;;;;;12.13;2.60;;;14.50;99.90;;;;;;5072306;28;20071;-68
2023/10/12 00:58:56;;;;;;;16.37;3.23;;;14.50;99.90;;;;;;5072521;28;20041;-67
2023/10/12 01:01:25;;;;;;;13.10;3.33;;;14.50;99.90;;;;;;5073611;28;20044;-68
2023/10/12 01:03:52;;;;;;;11.80;2.43;;;14.50;99.90;;;;;;5073396;28;20049;-68
2023/10/12 01:06:27;;;;;;;13.93;3.10;;;14.50;99.90;;;;;;5073555;28;20053;-67
2023/10/12 01:08:57;;;;;;;14.50;2.70;;;14.50;99.90;;;;;;5073624;28;20115;-67
2023/10/12 01:11:26;;;;;;;11.00;2.57;;;14.50;99.90;;;;;;5072932;28;20121;-67
2023/10/12 01:19:20;;;;;;;16.33;2.90;;;14.50;99.90;;;;;;5073334;28;20052;-67
2023/10/12 01:21:47;;;;;;;;;;;14.50;99.90;;;;;;5073317;28;20048;-67
2023/10/12 01:24:13;;;;;;;12.97;2.60;;;14.50;99.90;;;;;;5073225;28;19924;-67
2023/10/12 01:26:43;;;;;;;15.57;4.10;;;14.50;99.90;;;;;;5071707;28;20098;-68
2023/10/12 01:29:17;;;;;;;16.07;2.90;;;14.50;99.90;;;;;;5073237;28;20052;-67
2023/10/12 01:31:49;;;;;;;15.70;3.13;;;14.40;99.90;;;;;;5072941;28;20044;-67
2023/10/12 01:34:17;;;;;;;10.77;2.97;;;14.40;99.90;;;;;;5072112;28;20393;-67
2023/10/12 01:36:43;;;;;;;17.90;3.77;;;14.50;99.90;;;;;;5072781;28;20052;-67
2023/10/12 01:39:11;;;;;;;13.13;3.17;;;14.40;99.90;;;;;;5073040;28;20084;-67
2023/10/12 01:41:40;;;;;;;13.53;3.30;;;14.40;99.90;;;;;;5072508;28;20061;-67
2023/10/12 01:44:10;;;;;;;16.07;2.87;;;14.50;99.90;;;;;;5072956;28;20127;-67
2023/10/12 01:46:40;;;;;;;12.13;3.00;;;14.50;99.90;;;;;;5072651;28;20099;-68
2023/10/12 01:49:09;;;;;;;17.27;3.67;;;14.40;99.90;;;;;;5072935;28;20044;-67
2023/10/12 01:51:45;;;;;;;16.30;3.00;;;14.40;99.90;;;;;;5072625;28;20044;-68
2023/10/12 01:54:22;;;;;;;15.70;3.03;;;14.40;99.90;;;;;;5073337;28;20055;-67
2023/10/12 01:56:51;;;;;;;14.13;3.33;;;14.40;99.90;;;;;;5072595;28;20107;-67
2023/10/12 01:59:19;;;;;;;13.33;2.30;;;14.40;99.90;;;;;;5072707;28;20455;-67
2023/10/12 02:01:47;;;;;;;12.00;2.70;;;14.40;99.90;;;;;;5072357;28;20123;-68
2023/10/12 02:04:13;;;;;;;12.60;2.37;;;14.30;99.90;;;;;;5071779;28;20393;-67
2023/10/12 02:06:40;;;;;;;15.47;3.43;;;14.30;99.90;;;;;;5071282;28;20041;-68
2023/10/12 02:09:09;;;;;;;15.23;3.77;;;14.30;99.90;;;;;;5072639;28;20048;-67
2023/10/12 02:11:45;;;;;;;14.53;3.13;;;14.30;99.90;;;;;;5072338;28;20044;-68
2023/10/12 02:14:12;;;;;;;12.90;2.57;;;14.20;99.90;;;;;;5071956;28;20052;-67
2023/10/12 02:16:39;;;;;;;10.17;2.47;;;14.20;99.90;;;;;;5072308;28;20443;-68
2023/10/12 02:19:06;;;;;;;9.97;2.60;;;14.20;99.90;;;;;;5072574;28;20044;-67
2023/10/12 02:21:33;;;;;;;11.53;2.60;;;14.20;99.90;;;;;;5072511;28;20055;-67
2023/10/12 02:26:38;;;;;;;12.80;2.83;;;14.10;99.90;;;;;;5076551;28;20126;-67
2023/10/12 02:31:40;;;;;;;14.70;2.93;;;14.10;99.90;;;;;;5076421;28;20056;-67
2023/10/12 02:34:16;;;;;;;15.47;2.50;;;14.10;99.90;;;;;;5076174;28;20055;-67
2023/10/12 02:39:40;;;;;;;14.50;2.43;;;14.00;99.90;;;;;;5076281;28;20053;-67
2023/10/12 02:44:35;;;;;;;12.33;2.90;;;13.90;99.90;;;;;;5075809;28;20493;-67
2023/10/12 02:47:12;;;;;;;12.03;2.40;;;13.90;99.90;;;;;;5075682;28;20123;-67
2023/10/12 02:49:40;;;;;;;9.47;2.97;;;13.90;99.90;;;;;;5075956;28;20060;-70
2023/10/12 02:52:08;;;;;;;11.43;2.17;;;13.90;99.90;;;;;;5076115;28;20048;-67
2023/10/12 02:54:49;;;;;;;12.40;2.33;;;13.80;99.90;;;;;;5075934;28;20045;-67
2023/10/12 02:57:22;;;;;;;11.07;2.20;;;13.80;99.90;;;;;;5075815;28;20054;-67
2023/10/12 02:59:56;;;;;;;15.03;3.10;;;13.80;99.90;;;;;;5075561;28;20408;-67
2023/10/12 03:02:35;;;;;;;11.43;2.22;;;13.80;99.90;;;;;;5075977;28;20049;-67
2023/10/12 03:05:09;;;;;;;10.27;2.43;;;13.70;99.90;;;;;;5075141;28;20595;-67
2023/10/12 03:07:37;;;;;;;10.02;2.20;;;13.70;99.90;;;;;;5075935;28;20091;-67
2023/10/12 03:10:07;;;;;;;14.23;2.70;;;13.70;99.90;;;;;;5074446;28;20053;-67
2023/10/12 03:12:35;;;;;;;16.00;2.97;;;13.70;99.90;;;;;;5075637;28;20048;-66
2023/10/12 03:15:30;;;;;;;10.67;2.50;;;13.60;99.90;;;;;;5074122;28;20048;-67
2023/10/12 03:17:58;;;;;;;13.63;2.50;;;13.60;99.90;;;;;;5075002;28;20053;-67
2023/10/12 03:20:28;;;;;;;9.27;1.97;;;13.60;99.90;;;;;;5075372;28;20088;-67
2023/10/12 03:23:05;;;;;;;10.77;2.30;;;13.60;99.90;;;;;;5074241;28;20095;-67
2023/10/12 03:25:42;;;;;;;8.13;2.40;;;13.60;99.90;;;;;;5075298;28;20102;-67
2023/10/12 03:28:13;;;;;;;11.10;3.00;;;13.60;99.90;;;;;;5075345;28;20518;-67
2023/10/12 03:30:45;;;;;;;12.37;2.27;;;13.60;99.90;;;;;;5075482;28;20048;-67
2023/10/12 03:33:15;;;;;;;10.07;2.20;;;13.60;99.90;;;;;;5075123;28;20381;-67
2023/10/12 03:36:13;;;;;;;11.00;2.73;;;13.60;99.90;;;;;;5075183;28;20101;-67
2023/10/12 03:38:39;;;;;;;10.17;2.90;;;13.60;99.90;;;;;;5074144;28;20127;-67
2023/10/12 03:43:48;;;;;;;9.33;2.20;;;13.50;99.90;;;;;;5074933;28;20056;-67
2023/10/12 03:46:26;;;;;;;10.30;2.53;;;13.50;99.90;;;;;;5075035;28;20052;-67
2023/10/12 03:49:24;;;;;;;9.57;2.33;;;13.40;99.90;;;;;;5074719;28;20048;-67
2023/10/12 03:51:57;;;;;;;14.37;2.27;;;13.40;99.90;;;;;;5074512;28;20045;-67
2023/10/12 03:54:29;;;;;;;10.40;2.23;;;13.40;99.90;;;;;;5075320;28;20048;-67
2023/10/12 03:57:07;;;;;;;10.00;2.97;;;13.40;99.90;;;;;;5073378;28;20439;-67
2023/10/12 04:02:17;;;;;;;10.43;2.20;;;13.40;99.90;;;;;;5074689;28;20508;-67
2023/10/12 04:04:53;;;;;;;11.67;2.33;;;13.40;99.90;;;;;;5073585;28;20044;-66
2023/10/12 04:07:19;;;;;;;7.80;3.27;;;13.40;99.90;;;;;;5074755;28;20127;-67
2023/10/12 04:09:52;;;;;;;10.90;2.37;;;13.30;99.90;;;;;;5074598;28;20056;-66
2023/10/12 04:14:53;;;;;;;13.68;2.95;;;13.40;99.90;;;;;;5074212;28;20048;-67
2023/10/12 04:20:12;;;;;;;9.37;2.17;;;13.40;99.90;;;;;;5074228;28;20056;-66
2023/10/12 04:33:18;;;;;;;11.07;2.10;;;13.30;99.90;;;;;;5074401;28;20048;-67
2023/10/12 04:38:27;;;;;;;9.93;1.77;;;13.30;99.90;;;;;;5073971;28;20059;-67
2023/10/12 04:43:52;;;;;;;12.70;2.00;;;13.30;99.90;;;;;;5073876;28;20063;-67
2023/10/12 04:52:09;;;;;;;12.68;2.38;;;13.30;99.90;;;;;;5037293;28;20092;-67
2023/10/12 04:54:49;;;;;;;8.90;2.03;;;13.30;99.90;;;;;;5071745;28;20485;-67
2023/10/12 04:57:16;;;;;;;10.83;2.00;;;13.20;99.90;;;;;;5072349;28;20053;-67
2023/10/12 05:00:00;;;;;;;8.30;2.10;;;13.20;99.90;;;;;;5073525;28;20105;-67
2023/10/12 05:02:54;;;;;;;7.65;2.17;;;13.20;99.90;;;;;;5073470;28;20045;-67
2023/10/12 05:07:59;;;;;;;13.20;2.80;;;13.20;99.90;;;;;;5073461;28;20052;-67
2023/10/12 05:13:10;;;;;;;10.07;1.93;;;13.20;99.90;;;;;;5073191;28;20127;-67
2023/10/12 05:15:46;;;;;;;10.37;2.43;;;13.20;99.90;;;;;;5073318;28;20052;-67
2023/10/12 05:18:17;;;;;;;13.43;2.40;;;13.20;99.90;;;;;;5073046;28;20052;-67
2023/10/12 05:20:44;;;;;;;8.43;2.10;;;13.20;99.90;;;;;;5073307;28;20049;-67
2023/10/12 05:23:11;;;;;;;11.50;2.87;;;13.20;99.90;;;;;;5072948;28;20067;-67
2023/10/12 05:28:30;;;;;;;11.43;2.87;;;13.10;99.90;;;;;;5072967;28;20197;-67
2023/10/12 05:31:01;;;;;;;8.07;2.03;;;13.10;99.90;;;;;;5073238;28;20049;-67
2023/10/12 05:36:00;;;;;;;9.70;2.40;;;13.10;99.90;;;;;;5072833;28;20045;-68
2023/10/12 05:38:35;;;;;;;10.13;3.13;;;13.10;99.90;;;;;;5073116;28;20044;-67
2023/10/12 05:41:08;;;;;;;7.87;2.87;;;13.10;99.90;;;;;;5072420;28;20504;-67
2023/10/12 05:43:36;;;;;;;10.17;2.27;;;13.00;99.90;;;;;;5073050;28;20507;-67
2023/10/12 05:46:09;;;;;;;12.70;2.60;;;12.90;99.90;;;;;;5071936;28;20135;-68
2023/10/12 05:48:37;;;;;;;12.70;2.73;;;12.90;99.90;;;;;;5073267;28;20052;-66
2023/10/12 05:51:04;;;;;;;9.57;2.07;;;12.80;99.90;;;;;;5072630;28;20051;-66
2023/10/12 05:53:32;;;;;;;14.47;2.40;;;12.80;99.90;;;;;;5072967;28;20105;-66
2023/10/12 05:55:57;;;;;;;12.70;2.13;;;12.70;99.90;;;;;;5073013;28;20056;-66
2023/10/12 05:58:23;;;;;;;13.40;3.60;;;12.70;99.90;;;;;;5076631;28;20481;-66
2023/10/12 06:00:52;;;;;;;10.93;2.50;;;12.60;99.90;;;;;;5076976;28;20416;-66
2023/10/12 06:03:20;;;;;;;9.37;2.30;;;12.70;99.90;;;;;;5076607;28;20045;-65
2023/10/12 06:05:48;;;;;;;9.10;2.27;;;12.60;99.90;;;;;;5075926;28;20283;-66
2023/10/12 06:08:16;;;;;;;12.53;2.67;;;12.60;99.90;;;;;;5076500;28;20048;-66
2023/10/12 06:10:42;;;;;;;10.57;2.40;;;12.60;99.90;;;;;;5058770;28;20048;-66
2023/10/12 06:13:09;;;;;;;12.13;2.50;;;12.60;99.90;;;;;;5076509;28;20097;-66
2023/10/12 06:15:53;;;;;;;10.23;2.33;;;12.50;99.90;;;;;;5076645;28;20045;-66
2023/10/12 06:18:21;;;;;;;11.30;2.60;;;12.50;99.90;;;;;;5076384;28;20052;-66
2023/10/12 06:21:06;;;;;;;12.37;2.90;;;12.50;99.90;;;;;;5075322;28;20055;-67
2023/10/12 06:23:32;;;;;;;13.48;2.67;;;12.60;99.90;;;;;;5076123;28;20486;-67
2023/10/12 06:25:58;;;;;;;14.50;2.90;;;12.50;99.90;;;;;;5076405;28;20044;-67
2023/10/12 06:28:27;;;;;;;10.00;2.40;;;12.50;99.90;;;;;;5076161;28;20055;-67
2023/10/12 06:30:53;;;;;;;7.40;2.10;;;12.50;99.90;;;;;;5058863;28;20045;-67
2023/10/12 06:33:22;;;;;;;9.27;2.50;;;12.50;99.90;;;;;;5076073;28;20135;-68
2023/10/12 06:36:01;;;;;;;11.63;2.43;;;12.40;99.90;;;;;;5075292;28;20056;-67
2023/10/12 06:46:16;;;;;;;10.90;2.30;;;12.40;99.90;;;;;;5075802;28;19926;-67
2023/10/12 06:48:45;;;;;;;12.63;2.53;;;12.40;99.90;;;;;;5074984;28;20048;-67
2023/10/12 06:51:13;;;;;;;7.93;1.90;;;12.40;99.90;;;;;;5075390;28;20098;-67
2023/10/12 06:53:41;;;;;;;11.27;2.73;;;12.50;99.90;;;;;;5075807;28;20282;-67
2023/10/12 07:01:38;;;;;;;10.77;2.63;;;12.60;99.90;;;;;;5075979;28;20056;-67
2023/10/12 07:04:14;;;;;;;11.07;2.37;;;12.60;99.90;;;;;;5075729;28;20064;-67
2023/10/12 07:06:48;;;;;;;9.83;2.13;;;12.60;99.90;;;;;;5075624;28;20052;-67
2023/10/12 07:09:14;;;;;;;12.33;2.57;;;12.60;99.90;;;;;;5074697;28;20283;-69
2023/10/12 07:11:40;;;;;;;12.57;2.70;;;12.70;99.90;;;;;;5075636;28;20044;-66
2023/10/12 07:14:06;;;;;;;11.03;2.60;;;12.80;99.90;;;;;;5074644;28;20372;-67
2023/10/12 07:16:40;;;;;;;10.97;2.63;;;12.80;99.90;;;;;;5075275;28;20095;-67
2023/10/12 07:19:09;;;;;;;11.98;2.40;;;12.90;99.90;;;;;;5074716;28;20060;-67
2023/10/12 07:21:36;;;;;;;12.23;2.73;;;13.00;99.90;;;;;;5075092;28;20051;-67
2023/10/12 07:24:06;;;;;;;7.67;2.17;;;13.00;99.90;;;;;;5074138;28;20278;-66
2023/10/12 07:26:32;;;;;;;8.23;2.20;;;13.10;99.90;;;;;;5073834;28;20151;-66
2023/10/12 07:28:58;;;;;;;11.07;2.47;;;13.30;99.90;;;;;;5075301;28;20140;-66
2023/10/12 07:31:30;;;;;;;11.73;2.20;;;13.40;99.90;;;;;;5074952;28;20049;-66
2023/10/12 07:39:21;;;;;;;13.38;2.95;;;13.70;99.90;;;;;;5075286;28;20052;-66
2023/10/12 07:41:59;;;;;;;10.43;2.13;;;13.70;99.90;;;;;;5074877;28;20056;-67
2023/10/12 07:44:27;;;;;;;12.83;2.43;;;13.80;99.90;;;;;;5074800;28;20052;-67
2023/10/12 07:46:56;;;;;;;10.73;2.47;;;13.90;99.90;;;;;;5074944;28;20040;-67
2023/10/12 07:49:37;;;;;;;10.03;2.07;;;13.90;99.90;;;;;;5074736;28;20083;-67
2023/10/12 07:54:54;;;;;;;10.30;2.17;;;14.10;99.90;;;;;;5074261;28;20825;-67
2023/10/12 07:57:22;;;;;;;;;;;14.10;99.90;;;;;;5074911;28;20067;-67
2023/10/12 08:02:43;;;;;;;9.07;2.00;;;14.10;99.90;;;;;;5074498;28;20080;-67
2023/10/12 08:15:59;;;;;;;10.07;2.27;;;14.10;99.90;;;;;;5074606;28;20091;-66
2023/10/12 08:24:09;;;;;;;12.10;2.10;;;14.10;99.90;;;;;;5074364;28;20082;-66
2023/10/12 08:32:04;;;;;;;10.47;2.50;;;14.20;99.90;;;;;;5074374;28;20052;-66
2023/10/12 08:39:50;;;;;;;12.13;3.43;;;14.40;99.90;;;;;;5073626;28;20056;-66
2023/10/12 08:44:59;;;;;;;10.57;2.63;;;14.50;99.90;;;;;;5074012;28;20080;-65
2023/10/12 08:52:29;;;;;;;10.23;2.40;;;14.50;99.90;;;;;;5073024;28;20111;-67
2023/10/12 08:55:11;;;;;;;12.37;2.40;;;14.50;99.90;;;;;;5071009;28;20115;-66
2023/10/12 08:57:52;;;;;;;12.80;2.20;;;14.60;99.90;;;;;;5071102;28;20143;-66
2023/10/12 09:00:24;;;;;;;13.67;2.40;;;14.60;99.90;;;;;;5071148;28;20054;-66
2023/10/12 09:02:59;;;;;;;13.33;2.53;;;14.60;99.90;;;;;;5073211;28;20049;-65
2023/10/12 09:05:30;;;;;;;13.88;2.17;;;14.70;99.90;;;;;;5072968;28;20051;-67
2023/10/12 09:13:35;;;;;;;7.23;1.90;;;14.90;99.90;;;;;;5073134;28;20048;-70
2023/10/12 09:16:07;;;;;;;7.40;1.80;;;14.90;99.90;;;;;;5073273;28;20037;-68
2023/10/12 09:18:43;;;;;;;12.37;2.30;;;14.90;99.90;;;;;;5072791;28;20128;-68
2023/10/12 09:24:05;;;;;;;8.37;2.00;;;14.90;99.90;;;;;;5070008;28;20048;-67
2023/10/12 09:26:32;;;;;;;10.83;2.00;;;15.00;99.90;;;;;;5070209;28;20045;-66
2023/10/12 09:36:43;;;;;;;13.93;3.57;;;15.30;99.90;;;;;;5072363;28;20411;-69
2023/10/12 09:39:24;;;;;;;19.87;2.50;;;15.40;99.90;;;;;;5069900;28;20036;-67
2023/10/12 09:41:59;;;;;;;7.70;2.07;;;15.40;99.90;;;;;;5068415;28;20106;-65
2023/10/12 09:44:27;;;;;;;7.20;1.90;;;15.50;99.90;;;;;;5071316;28;20048;-66
2023/10/12 09:46:57;;;;;;;10.67;2.47;;;15.60;99.90;;;;;;5072188;28;20049;-67
2023/10/12 09:49:27;;;;;;;11.90;2.73;;;15.60;99.90;;;;;;5072135;28;20492;-65
2023/10/12 09:52:04;;;;;;;12.97;1.97;;;15.60;99.90;;;;;;5070744;28;20054;-66
2023/10/12 09:55:06;;;;;;;10.73;2.03;;;15.60;99.90;;;;;;5069994;28;20504;-67
2023/10/12 09:57:32;;;;;;;11.90;2.50;;;15.60;99.90;;;;;;5069128;28;20052;-66
2023/10/12 10:00:18;;;;;;;15.00;2.30;;;15.60;99.90;;;;;;5071710;28;20045;-67
2023/10/12 10:02:49;;;;;;;8.33;2.57;;;15.50;99.90;;;;;;5071924;28;20080;-67
2023/10/12 10:07:56;;;;;;;13.93;2.37;;;15.50;99.90;;;;;;5071984;28;20056;-66
2023/10/12 10:10:35;;;;;;;16.53;2.97;;;15.50;99.90;;;;;;5071424;28;21373;-66
2023/10/12 10:13:20;;;;;;;11.57;2.20;;;15.50;99.90;;;;;;5071725;28;20076;-66
2023/10/12 10:15:56;;;;;;;11.30;2.10;;;15.50;99.90;;;;;;5072437;28;20473;-65
2023/10/12 10:18:25;;;;;;;11.83;2.57;;;15.60;99.90;;;;;;5072752;28;20048;-65
2023/10/12 10:20:58;;;;;;;11.07;2.60;;;15.60;99.90;;;;;;5071181;28;20127;-66
2023/10/12 10:23:24;;;;;;;11.63;2.10;;;15.60;99.90;;;;;;5072575;28;20087;-66
2023/10/12 10:28:53;;;;;;;11.63;2.77;;;15.70;99.90;;;;;;5072262;28;20056;-64
2023/10/12 10:31:26;;;;;;;10.40;2.10;;;15.80;99.90;;;;;;5071495;28;20044;-65
2023/10/12 10:33:57;;;;;;;16.67;2.43;;;15.90;99.90;;;;;;5072172;28;20052;-66
2023/10/12 10:36:26;;;;;;;14.00;3.33;;;15.90;99.90;;;;;;5072434;28;20052;-67
2023/10/12 10:42:14;;;;;;;9.63;2.30;;;16.10;99.90;;;;;;5072125;28;20066;-66
2023/10/12 10:44:16;;;;;;;10.30;2.40;;;16.20;99.90;;;;;;5066477;28;20063;-66
2023/10/12 10:46:46;;;;;;;12.53;2.43;;;16.30;99.90;;;;;;5075754;28;20051;-67
2023/10/12 10:49:16;;;;;;;10.47;2.63;;;16.30;99.90;;;;;;5076211;28;20051;-66
2023/10/12 10:51:48;;;;;;;13.07;2.43;;;16.30;99.90;;;;;;5075770;28;20040;-67
2023/10/12 10:54:20;;;;;;;10.73;2.07;;;16.30;99.90;;;;;;5074999;28;20060;-66
2023/10/12 10:56:49;;;;;;;12.97;2.93;;;16.30;99.90;;;;;;5075617;28;20041;-66
2023/10/12 10:59:18;;;;;;;11.33;2.43;;;16.30;99.90;;;;;;5075652;28;20056;-65
2023/10/12 11:01:48;;;;;;;11.40;2.47;;;16.30;99.90;;;;;;5074313;28;20461;-65
2023/10/12 11:07:03;;;;;;;11.32;2.25;;;16.30;99.90;;;;;;5075507;28;20410;-65
2023/10/12 11:12:16;;;;;;;10.23;2.60;;;16.20;99.90;;;;;;5071529;28;20106;-65
2023/10/12 11:14:52;;;;;;;10.07;2.40;;;16.30;99.90;;;;;;5068336;28;20091;-65
2023/10/12 11:17:21;;;;;;;10.50;2.10;;;16.20;99.90;;;;;;5074716;28;20083;-64
2023/10/12 11:19:50;;;;;;;7.67;2.53;;;16.20;99.90;;;;;;5074815;28;20071;-64
2023/10/12 11:22:17;;;;;;;9.97;2.30;;;16.20;99.90;;;;;;5071462;28;20412;-64
2023/10/12 11:24:49;;;;;;;9.37;2.43;;;16.20;99.90;;;;;;5074374;28;20550;-66
2023/10/12 11:27:35;;;;;;;8.30;2.17;;;16.10;99.90;;;;;;5074355;28;20076;-65
2023/10/12 11:30:12;;;;;;;10.70;2.27;;;16.00;99.90;;;;;;5073774;28;20834;-65
2023/10/12 11:32:54;;;;;;;10.67;2.20;;;15.90;99.90;;;;;;5072918;28;20040;-65
2023/10/12 11:35:43;;;;;;;11.43;2.67;;;15.90;99.90;;;;;;5075022;28;20088;-65
2023/10/12 11:38:18;;;;;;;8.73;1.93;;;15.90;99.90;;;;;;5075213;28;20124;-66
2023/10/12 11:40:48;;;;;;;10.23;2.43;;;15.90;99.90;;;;;;5074375;28;20044;-66
2023/10/12 11:43:14;;;;;;;18.50;3.47;;;16.00;99.90;;;;;;5071587;28;20048;-65
2023/10/12 11:46:01;;;;;;;15.20;2.53;;;15.90;99.90;;;;;;5074793;28;20062;-65
2023/10/12 11:48:28;;;;;;;11.90;2.33;;;16.00;99.90;;;;;;5074141;28;20049;-65
2023/10/12 11:50:55;;;;;;;8.20;2.63;;;16.00;99.90;;;;;;5073357;28;20449;-65
2023/10/12 11:53:21;;;;;;;13.83;2.20;;;16.00;99.90;;;;;;5071385;28;20087;-66
2023/10/12 11:56:01;;;;;;;13.93;2.87;;;16.00;99.90;;;;;;5074184;28;20088;-64
2023/10/12 11:58:27;;;;;;;11.77;2.20;;;16.00;99.90;;;;;;5074689;28;20105;-64
2023/10/12 12:00:55;;;;;;;12.03;2.20;;;15.90;99.90;;;;;;5074197;28;20040;-64
2023/10/12 12:03:21;;;;;;;13.03;2.80;;;15.90;99.90;;;;;;5071336;28;20052;-64
2023/10/12 12:05:52;;;;;;;8.60;2.60;;;15.90;99.90;;;;;;5072962;28;20055;-64
2023/10/12 12:08:18;;;;;;;9.43;2.27;;;15.90;99.90;;;;;;5074424;28;20105;-64
2023/10/12 12:10:53;;;;;;;10.53;2.13;;;15.80;99.90;;;;;;5074185;28;20041;-65
2023/10/12 12:13:23;;;;;;;8.13;2.00;;;15.80;99.90;;;;;;5070529;28;20040;-64
2023/10/12 12:15:50;;;;;;;11.93;2.10;;;15.70;99.90;;;;;;5073288;28;20052;-65
2023/10/12 12:20:44;;;;;;;10.07;2.13;;;15.60;99.90;;;;;;5073487;28;20047;-64
2023/10/12 12:23:12;;;;;;;14.93;3.20;;;15.60;99.90;;;;;;5067692;28;20068;-64
2023/10/12 12:25:39;;;;;;;8.43;2.87;;;15.60;99.90;;;;;;5073992;28;20071;-64
2023/10/12 12:28:13;;;;;;;11.67;2.50;;;15.60;99.90;;;;;;5073172;28;20837;-64
2023/10/12 12:30:55;;;;;;;12.43;2.13;;;15.60;99.90;;;;;;5074028;28;20090;-64
2023/10/12 12:33:22;;;;;;;11.07;2.40;;;15.60;99.90;;;;;;5070620;28;20133;-64
2023/10/12 12:35:48;;;;;;;11.00;2.30;;;15.60;99.90;;;;;;5073256;28;20186;-65
2023/10/12 12:40:59;;;;;;;11.67;2.10;;;15.50;99.90;;;;;;5073071;28;20048;-64
2023/10/12 12:43:25;;;;;;;12.87;2.57;;;15.50;99.90;;;;;;5070440;28;20085;-64
2023/10/12 12:45:52;;;;;;;11.00;2.40;;;15.50;99.90;;;;;;5073119;28;20045;-64
2023/10/12 12:48:21;;;;;;;11.03;2.40;;;15.40;99.90;;;;;;5073548;28;20056;-64
2023/10/12 12:50:49;;;;;;;10.40;2.50;;;15.50;99.90;;;;;;5073441;28;20506;-64
2023/10/12 12:53:19;;;;;;;9.80;2.20;;;15.50;99.90;;;;;;5070164;28;20044;-64
2023/10/12 12:55:46;;;;;;;9.70;2.20;;;15.50;99.90;;;;;;5073176;28;20048;-64
2023/10/12 12:58:15;;;;;;;8.47;1.87;;;15.50;99.90;;;;;;5073044;28;20052;-64
2023/10/12 13:00:42;;;;;;;9.33;2.40;;;15.50;99.90;;;;;;5073259;28;20072;-64
2023/10/12 13:03:09;;;;;;;18.47;2.67;;;15.50;99.90;;;;;;5069686;28;20113;-64
2023/10/12 13:05:36;;;;;;;7.27;2.13;;;15.50;99.90;;;;;;5072434;28;20041;-64
2023/10/12 13:08:02;;;;;;;11.67;2.30;;;15.50;99.90;;;;;;5072441;28;20044;-65
2023/10/12 13:10:28;;;;;;;7.57;2.30;;;15.50;99.90;;;;;;5073149;28;20068;-65
2023/10/12 13:12:54;;;;;;;13.33;2.30;;;15.50;99.90;;;;;;5069573;28;20076;-65
2023/10/12 13:15:21;;;;;;;8.20;2.10;;;15.50;99.90;;;;;;5072500;28;20098;-64
2023/10/12 13:17:47;;;;;;;10.67;2.10;;;15.50;99.90;;;;;;5073177;28;20048;-64
2023/10/12 13:20:28;;;;;;;9.53;2.50;;;15.50;99.90;;;;;;5071531;28;20092;-64
2023/10/12 13:22:55;;;;;;;12.63;3.10;;;15.50;99.90;;;;;;5069509;28;20121;-64
2023/10/12 13:25:21;;;;;;;9.87;2.30;;;15.40;99.90;;;;;;5071518;28;20052;-64
2023/10/12 13:27:49;;;;;;;12.20;2.60;;;15.40;99.90;;;;;;5072977;28;20052;-64
2023/10/12 13:30:15;;;;;;;10.00;2.77;;;15.30;99.90;;;;;;5072538;28;20083;-65
2023/10/12 13:32:48;;;;;;;9.97;2.00;;;15.30;99.90;;;;;;5069642;28;20507;-64
2023/10/12 13:35:18;;;;;;;12.60;2.83;;;15.20;99.90;;;;;;5072418;28;20135;-65
2023/10/12 13:37:51;;;;;;;11.73;2.50;;;15.20;99.90;;;;;;5072775;28;20477;-64
2023/10/12 13:40:17;;;;;;;8.90;2.10;;;15.20;99.90;;;;;;5071421;28;20044;-64
2023/10/12 13:42:44;;;;;;;11.40;2.03;;;15.20;99.90;;;;;;5069624;28;20060;-64
2023/10/12 13:45:13;;;;;;;10.40;2.20;;;15.10;99.90;;;;;;5072405;28;20051;-64
2023/10/12 13:47:42;;;;;;;9.07;2.73;;;15.10;99.90;;;;;;5072643;28;20370;-64
2023/10/12 13:50:12;;;;;;;10.00;2.10;;;15.10;99.90;;;;;;5071425;28;20055;-64
2023/10/12 13:52:38;;;;;;;9.13;2.40;;;15.10;99.90;;;;;;5069587;28;20412;-64
2023/10/12 13:55:10;;;;;;;9.77;2.23;;;15.10;99.90;;;;;;5071254;28;20779;-64
2023/10/12 13:57:36;;;;;;;14.83;2.57;;;15.10;99.90;;;;;;5072826;28;20048;-64
2023/10/12 14:00:04;;;;;;;11.23;2.70;;;15.10;99.90;;;;;;5072287;28;20048;-64
2023/10/12 14:02:29;;;;;;;12.80;2.47;;;15.10;99.90;;;;;;5069367;28;20123;-65
2023/10/12 14:04:57;;;;;;;8.87;2.30;;;15.10;99.90;;;;;;5072108;28;20127;-65
2023/10/12 14:07:23;;;;;;;10.80;2.97;;;15.10;99.90;;;;;;5072310;28;20052;-64
2023/10/12 14:09:49;;;;;;;10.30;1.80;;;15.10;99.90;;;;;;5072132;28;20051;-64
2023/10/12 14:12:16;;;;;;;13.33;2.10;;;15.10;99.90;;;;;;5068842;28;20557;-65
2023/10/12 14:14:42;;;;;;;12.33;2.37;;;15.00;99.90;;;;;;5071737;28;20519;-65
2023/10/12 14:17:08;;;;;;;11.20;2.23;;;15.00;99.90;;;;;;5071498;28;20048;-64
2023/10/12 14:19:35;;;;;;;11.07;2.97;;;14.90;99.90;;;;;;5075998;28;20044;-64
2023/10/12 14:22:03;;;;;;;11.60;2.20;;;14.90;99.90;;;;;;5073392;28;20048;-65
2023/10/12 14:24:33;;;;;;;16.67;3.13;;;14.80;99.90;;;;;;5056044;28;20053;-64
2023/10/12 14:27:00;;;;;;;11.50;2.73;;;14.80;99.90;;;;;;5075326;28;20052;-65
2023/10/12 14:29:26;;;;;;;11.77;2.57;;;14.80;99.90;;;;;;5076377;28;20047;-65
2023/10/12 14:31:52;;;;;;;8.83;2.03;;;14.70;99.90;;;;;;5076245;28;20044;-65
2023/10/12 14:34:17;;;;;;;10.77;2.30;;;14.70;99.90;;;;;;5076021;28;20059;-65
2023/10/12 14:36:44;;;;;;;11.50;2.83;;;14.60;99.90;;;;;;5076243;28;20141;-66
2023/10/12 14:39:22;;;;;;;11.73;2.57;;;14.60;99.90;;;;;;5091939;28;20056;-66
2023/10/12 14:41:48;;;;;;;10.87;2.60;;;14.60;99.90;;;;;;5074519;28;20071;-66
2023/10/12 14:44:16;;;;;;;8.43;2.13;;;14.70;99.90;;;;;;5075855;28;20044;-66
2023/10/12 14:46:44;;;;;;;8.33;2.00;;;14.70;99.90;;;;;;5075675;28;20120;-65
2023/10/12 14:49:11;;;;;;;15.27;2.67;;;14.70;99.90;;;;;;5075270;28;20051;-65
2023/10/12 14:51:37;;;;;;;9.70;2.03;;;14.70;99.90;;;;;;5074427;28;20137;-69
2023/10/12 14:54:03;;;;;;;12.47;2.37;;;14.60;99.90;;;;;;5057659;28;20048;-66
2023/10/12 14:56:32;;;;;;;14.10;2.60;;;14.60;99.90;;;;;;5075448;28;20049;-66
2023/10/12 14:58:57;;;;;;;12.13;2.60;;;14.60;99.90;;;;;;5070549;28;20040;-67
2023/10/12 15:01:27;;;;;;;10.53;2.57;;;14.60;99.90;;;;;;5064638;28;20106;-68
2023/10/12 15:03:55;;;;;;;8.70;2.30;;;14.60;99.90;;;;;;5070739;28;20044;-67
2023/10/12 15:06:20;;;;;;;14.60;2.27;;;14.60;99.90;;;;;;5074511;28;20044;-66
2023/10/12 15:08:48;;;;;;;12.40;2.07;;;14.60;99.90;;;;;;5075067;28;20051;-66
2023/10/12 15:11:14;;;;;;;11.87;2.90;;;14.50;99.90;;;;;;5075141;28;20119;-66
2023/10/12 15:13:41;;;;;;;13.50;3.10;;;14.50;99.90;;;;;;5075663;28;20489;-65
2023/10/12 15:16:09;;;;;;;9.43;2.30;;;14.40;99.90;;;;;;5074124;28;20043;-66
2023/10/12 15:18:37;;;;;;;10.27;2.00;;;14.30;99.90;;;;;;5075441;28;20101;-66
2023/10/12 15:21:04;;;;;;;12.13;2.40;;;14.30;99.90;;;;;;5074032;28;20481;-66
2023/10/12 15:23:30;;;;;;;10.60;2.20;;;14.30;99.90;;;;;;5075626;28;20050;-66
2023/10/12 15:26:01;;;;;;;8.77;2.13;;;14.30;99.90;;;;;;5075455;28;20048;-66
2023/10/12 15:28:27;;;;;;;9.20;2.30;;;14.30;99.90;;;;;;5074600;28;20543;-67
2023/10/12 15:30:53;;;;;;;11.63;2.57;;;14.30;99.90;;;;;;5074302;28;20035;-67
2023/10/12 15:33:19;;;;;;;18.47;2.97;;;14.30;99.90;;;;;;5074560;28;20044;-67